createdAt,value
2023-04-16T00:01:07.628Z,95.80
2023-04-16T00:03:34.975Z,95.80
2023-04-16T00:06:04.557Z,95.70
2023-04-16T00:08:33.655Z,95.70
2023-04-16T00:11:00.680Z,95.70
2023-04-16T00:13:31.027Z,95.70
2023-04-16T00:15:59.435Z,95.70
2023-04-16T00:18:29.491Z,95.60
2023-04-16T00:20:59.091Z,95.60
2023-04-16T00:23:28.777Z,95.60
2023-04-16T00:26:00.386Z,95.50
2023-04-16T00:28:30.128Z,95.40
2023-04-16T00:30:57.468Z,95.50
2023-04-16T00:33:29.453Z,95.50
2023-04-16T00:35:59.704Z,95.50
2023-04-16T00:38:31.573Z,95.50
2023-04-16T00:40:59.235Z,95.50
2023-04-16T00:43:30.319Z,95.50
2023-04-16T00:45:59.633Z,95.30
2023-04-16T00:48:28.157Z,95.40
2023-04-16T00:50:58.407Z,95.40
2023-04-16T00:53:26.240Z,95.30
2023-04-16T00:55:56.546Z,95.30
2023-04-16T00:58:24.329Z,95.30
2023-04-16T01:00:52.376Z,95.30
2023-04-16T01:03:21.881Z,95.20
2023-04-16T01:05:55.497Z,95.20
2023-04-16T01:08:23.885Z,95.30
2023-04-16T01:10:52.432Z,95.10
2023-04-16T01:13:22.381Z,95.20
2023-04-16T01:15:50.384Z,95.20
2023-04-16T01:18:20.334Z,95.20
2023-04-16T01:20:51.354Z,95.10
2023-04-16T01:23:23.106Z,95.10
2023-04-16T01:25:52.676Z,95.10
2023-04-16T01:28:20.323Z,95.10
2023-04-16T01:30:52.023Z,95.10
2023-04-16T01:33:54.929Z,95.00
2023-04-16T01:36:25.864Z,95.10
2023-04-16T01:38:52.960Z,95.00
2023-04-16T01:41:21.427Z,95.00
2023-04-16T01:43:53.371Z,95.00
2023-04-16T01:46:31.714Z,95.00
2023-04-16T01:48:58.834Z,94.90
2023-04-16T01:51:27.372Z,95.00
2023-04-16T01:54:01.412Z,95.00
2023-04-16T01:56:29.913Z,95.10
2023-04-16T01:58:56.868Z,95.10
2023-04-16T02:01:28.820Z,95.00
2023-04-16T02:03:59.006Z,94.90
2023-04-16T02:06:28.973Z,95.00
2023-04-16T02:08:56.147Z,95.10
2023-04-16T02:11:23.428Z,95.10
2023-04-16T02:13:54.158Z,95.10
2023-04-16T02:16:21.178Z,95.00
2023-04-16T02:19:10.035Z,95.00
2023-04-16T02:21:40.093Z,94.90
2023-04-16T02:24:07.525Z,94.90
2023-04-16T02:26:35.023Z,94.90
2023-04-16T02:29:12.163Z,94.90
2023-04-16T02:31:44.847Z,95.00
2023-04-16T02:34:13.111Z,95.00
2023-04-16T02:36:42.046Z,95.10
2023-04-16T02:39:10.911Z,95.20
2023-04-16T02:41:38.935Z,95.40
2023-04-16T02:44:06.396Z,95.50
2023-04-16T02:46:33.543Z,95.60
2023-04-16T02:49:00.928Z,95.70
2023-04-16T02:51:30.557Z,95.70
2023-04-16T02:53:58.362Z,95.80
2023-04-16T02:56:25.590Z,95.80
2023-04-16T02:58:55.053Z,95.80
2023-04-16T03:01:22.254Z,95.90
2023-04-16T03:03:52.834Z,96.00
2023-04-16T03:06:20.729Z,96.00
2023-04-16T03:08:48.733Z,96.00
2023-04-16T03:11:18.530Z,96.00
2023-04-16T03:13:45.902Z,96.00
2023-04-16T03:16:14.461Z,95.90
2023-04-16T03:18:41.589Z,96.00
2023-04-16T03:21:09.083Z,96.00
2023-04-16T03:23:38.843Z,96.10
2023-04-16T03:26:06.763Z,96.00
2023-04-16T03:28:34.657Z,96.00
2023-04-16T03:31:04.022Z,96.00
2023-04-16T03:33:31.474Z,96.10
2023-04-16T03:36:02.197Z,96.10
2023-04-16T03:38:31.287Z,96.10
2023-04-16T03:40:59.458Z,96.20
2023-04-16T03:43:28.790Z,96.20
2023-04-16T03:45:56.198Z,96.20
2023-04-16T03:48:24.477Z,96.10
2023-04-16T03:50:54.287Z,96.10
2023-04-16T03:53:21.441Z,96.00
2023-04-16T03:56:07.340Z,96.00
2023-04-16T03:58:34.424Z,96.20
2023-04-16T04:01:01.599Z,95.90
2023-04-16T04:03:30.327Z,95.90
2023-04-16T04:05:58.770Z,95.90
2023-04-16T04:08:29.546Z,95.90
2023-04-16T04:10:58.592Z,95.80
2023-04-16T04:13:27.351Z,95.70
2023-04-16T04:15:55.566Z,95.70
2023-04-16T04:18:24.077Z,95.70
2023-04-16T04:20:50.968Z,95.70
2023-04-16T04:23:22.515Z,95.70
2023-04-16T04:25:50.660Z,95.70
2023-04-16T04:28:18.576Z,95.80
2023-04-16T04:30:47.876Z,95.80
2023-04-16T04:33:16.527Z,95.90
2023-04-16T04:35:46.809Z,96.00
2023-04-16T04:38:22.031Z,96.00
2023-04-16T04:40:49.707Z,95.80
2023-04-16T04:43:21.406Z,95.90
2023-04-16T04:45:49.775Z,95.70
2023-04-16T04:48:18.156Z,95.70
2023-04-16T04:50:46.876Z,95.80
2023-04-16T04:53:15.037Z,95.60
2023-04-16T04:55:43.007Z,95.50
2023-04-16T04:58:10.156Z,95.50
2023-04-16T05:00:37.944Z,95.40
2023-04-16T05:03:09.906Z,95.30
2023-04-16T05:05:40.087Z,95.30
2023-04-16T05:08:07.285Z,95.20
2023-04-16T05:10:34.544Z,95.20
2023-04-16T05:13:02.077Z,95.20
2023-04-16T05:15:28.984Z,95.20
2023-04-16T05:17:56.864Z,95.30
2023-04-16T05:20:27.017Z,95.30
2023-04-16T05:22:55.669Z,95.30
2023-04-16T05:25:23.521Z,95.40
2023-04-16T05:27:50.374Z,95.50
2023-04-16T05:30:17.470Z,95.50
2023-04-16T05:32:45.526Z,95.50
2023-04-16T05:35:28.970Z,95.60
2023-04-16T05:37:56.875Z,95.70
2023-04-16T05:40:29.923Z,95.70
2023-04-16T05:43:01.348Z,95.80
2023-04-16T05:45:29.349Z,95.90
2023-04-16T05:47:57.288Z,96.00
2023-04-16T05:50:24.138Z,96.00
2023-04-16T05:52:50.867Z,96.10
2023-04-16T05:55:17.675Z,96.20
2023-04-16T05:57:44.500Z,96.10
2023-04-16T06:00:11.531Z,96.20
2023-04-16T06:02:41.232Z,96.20
2023-04-16T06:07:53.659Z,96.40
2023-04-16T06:10:21.124Z,96.40
2023-04-16T06:12:51.597Z,96.40
2023-04-16T06:15:18.512Z,96.50
2023-04-16T06:17:45.654Z,96.50
2023-04-16T06:20:13.103Z,96.60
2023-04-16T06:22:40.315Z,96.50
2023-04-16T06:25:10.112Z,96.40
2023-04-16T06:27:39.746Z,96.50
2023-04-16T06:30:14.668Z,96.60
2023-04-16T06:33:00.579Z,96.70
2023-04-16T06:35:28.179Z,96.50
2023-04-16T06:37:55.346Z,96.60
2023-04-16T06:40:22.336Z,96.50
2023-04-16T06:42:51.616Z,96.50
2023-04-16T06:45:18.688Z,96.30
2023-04-16T06:47:48.329Z,96.00
2023-04-16T06:50:15.411Z,96.00
2023-04-16T06:52:42.573Z,95.90
2023-04-16T06:55:10.682Z,95.80
2023-04-16T06:57:37.995Z,95.70
2023-04-16T07:00:08.008Z,95.50
2023-04-16T07:02:35.367Z,95.50
2023-04-16T07:05:02.655Z,95.40
2023-04-16T07:07:29.949Z,95.40
2023-04-16T07:09:56.825Z,95.30
2023-04-16T07:12:26.194Z,95.10
2023-04-16T07:14:56.002Z,95.10
2023-04-16T07:17:22.925Z,95.10
2023-04-16T07:19:53.385Z,94.80
2023-04-16T07:22:20.964Z,94.70
2023-04-16T07:24:50.559Z,94.60
2023-04-16T07:27:17.702Z,94.60
2023-04-16T07:29:46.910Z,94.40
2023-04-16T07:32:15.480Z,94.40
2023-04-16T07:34:42.592Z,94.10
2023-04-16T07:37:11.884Z,93.30
2023-04-16T07:39:38.765Z,93.30
2023-04-16T07:42:06.685Z,93.10
2023-04-16T07:44:33.521Z,93.10
2023-04-16T07:47:01.050Z,92.80
2023-04-16T07:49:28.707Z,92.60
2023-04-16T07:51:55.734Z,92.40
2023-04-16T07:54:22.833Z,92.60
2023-04-16T07:56:50.031Z,92.40
2023-04-16T07:59:22.926Z,92.50
2023-04-16T08:01:53.877Z,92.80
2023-04-16T08:04:25.681Z,93.50
2023-04-16T08:06:54.309Z,92.90
2023-04-16T08:09:23.012Z,92.80
2023-04-16T08:11:50.114Z,92.90
2023-04-16T08:14:17.859Z,92.90
2023-04-16T08:16:45.185Z,93.40
2023-04-16T08:19:12.610Z,92.80
2023-04-16T08:21:40.962Z,93.30
2023-04-16T08:24:08.193Z,92.90
2023-04-16T08:26:35.738Z,92.80
2023-04-16T08:29:05.206Z,92.70
2023-04-16T08:31:33.091Z,92.60
2023-04-16T08:34:01.018Z,92.50
2023-04-16T08:36:28.293Z,92.50
2023-04-16T08:38:56.248Z,92.40
2023-04-16T08:41:25.014Z,92.30
2023-04-16T08:43:56.923Z,92.10
2023-04-16T08:46:29.801Z,92.00
2023-04-16T08:48:59.363Z,91.90
2023-04-16T08:51:30.250Z,91.70
2023-04-16T08:54:12.349Z,91.40
2023-04-16T08:56:43.161Z,91.70
2023-04-16T08:59:10.880Z,91.30
2023-04-16T09:01:39.752Z,91.30
2023-04-16T09:04:08.095Z,91.50
2023-04-16T09:06:36.878Z,91.40
2023-04-16T09:09:05.133Z,91.60
2023-04-16T09:11:32.613Z,91.50
2023-04-16T09:14:00.556Z,91.50
2023-04-16T09:16:34.836Z,91.50
2023-04-16T09:19:02.631Z,91.70
2023-04-16T09:21:30.107Z,91.70
2023-04-16T09:23:57.466Z,91.80
2023-04-16T09:26:24.942Z,91.80
2023-04-16T09:28:55.496Z,92.00
2023-04-16T09:31:22.496Z,92.00
2023-04-16T09:34:06.833Z,92.00
2023-04-16T09:36:34.514Z,91.90
2023-04-16T09:39:04.788Z,91.90
2023-04-16T09:41:38.500Z,92.20
2023-04-16T09:44:05.976Z,92.10
2023-04-16T09:46:40.903Z,92.30
2023-04-16T09:49:15.819Z,92.30
2023-04-16T09:51:44.347Z,92.40
2023-04-16T09:54:11.297Z,92.60
2023-04-16T09:56:46.172Z,92.70
2023-04-16T09:59:20.762Z,92.90
2023-04-16T10:01:50.058Z,92.60
2023-04-16T10:04:17.474Z,92.60
2023-04-16T10:06:46.096Z,92.70
2023-04-16T10:09:13.313Z,92.90
2023-04-16T10:11:40.237Z,92.70
2023-04-16T10:14:06.982Z,92.80
2023-04-16T10:16:34.832Z,92.90
2023-04-16T10:19:02.113Z,93.00
2023-04-16T10:21:34.079Z,93.00
2023-04-16T10:24:02.136Z,93.60
2023-04-16T10:26:31.134Z,94.10
2023-04-16T10:29:00.906Z,94.80
2023-04-16T10:31:29.362Z,95.10
2023-04-16T10:33:56.836Z,95.30
2023-04-16T10:36:25.228Z,95.60
2023-04-16T10:38:53.236Z,95.80
2023-04-16T10:41:21.172Z,96.00
2023-04-16T10:43:52.217Z,95.80
2023-04-16T10:46:22.939Z,95.70
2023-04-16T10:48:53.282Z,95.80
2023-04-16T10:51:36.564Z,96.00
2023-04-16T10:54:14.523Z,96.60
2023-04-16T10:56:41.704Z,96.80
2023-04-16T10:59:11.415Z,97.40
2023-04-16T11:01:46.201Z,97.20
2023-04-16T11:04:25.909Z,97.50
2023-04-16T11:07:15.550Z,97.30
2023-04-16T11:09:59.969Z,97.60
2023-04-16T11:12:30.428Z,97.40
2023-04-16T11:15:11.326Z,97.60
2023-04-16T11:17:41.365Z,97.00
2023-04-16T11:20:30.890Z,96.50
2023-04-16T11:22:59.135Z,96.50
2023-04-16T11:25:30.066Z,96.40
2023-04-16T11:27:59.249Z,96.20
2023-04-16T11:30:34.289Z,96.20
2023-04-16T11:33:11.705Z,96.30
2023-04-16T11:35:39.796Z,96.40
2023-04-16T11:38:07.742Z,96.50
2023-04-16T11:40:35.218Z,96.50
2023-04-16T11:43:06.179Z,96.40
2023-04-16T11:45:33.046Z,96.70
2023-04-16T11:48:02.389Z,96.50
2023-04-16T11:50:29.628Z,96.40
2023-04-16T11:53:03.860Z,97.20
2023-04-16T11:55:34.128Z,97.30
2023-04-16T11:58:19.377Z,96.80
2023-04-16T12:00:47.629Z,97.10
2023-04-16T12:03:15.136Z,95.90
2023-04-16T12:05:42.426Z,96.50
2023-04-16T12:08:11.173Z,95.80
2023-04-16T12:10:59.184Z,93.80
2023-04-16T12:13:26.196Z,93.60
2023-04-16T12:15:55.508Z,93.10
2023-04-16T12:18:27.287Z,93.40
2023-04-16T12:20:56.647Z,92.70
2023-04-16T12:23:42.507Z,92.70
2023-04-16T12:26:12.881Z,92.30
2023-04-16T12:28:40.533Z,91.00
2023-04-16T12:31:07.744Z,90.70
2023-04-16T12:33:34.781Z,90.50
2023-04-16T12:36:02.178Z,90.00
2023-04-16T12:38:29.718Z,89.70
2023-04-16T12:40:57.881Z,89.40
2023-04-16T12:43:25.836Z,88.80
2023-04-16T12:45:53.158Z,88.40
2023-04-16T12:48:20.606Z,87.00
2023-04-16T12:50:47.845Z,84.40
2023-04-16T12:53:15.023Z,82.20
2023-04-16T12:55:44.985Z,80.60
2023-04-16T12:58:12.688Z,78.80
2023-04-16T13:00:40.806Z,76.20
2023-04-16T13:03:08.278Z,77.20
2023-04-16T13:05:35.569Z,74.70
2023-04-16T13:08:02.456Z,73.00
2023-04-16T13:10:29.634Z,72.80
2023-04-16T13:12:58.871Z,72.50
2023-04-16T13:15:26.900Z,74.20
2023-04-16T13:17:54.010Z,75.50
2023-04-16T13:20:24.611Z,75.10
2023-04-16T13:22:51.992Z,75.30
2023-04-16T13:25:19.129Z,74.60
2023-04-16T13:27:46.175Z,75.30
2023-04-16T13:30:13.557Z,76.60
2023-04-16T13:32:41.204Z,77.20
2023-04-16T13:35:08.697Z,77.60
2023-04-16T13:37:35.553Z,78.40
2023-04-16T13:40:02.894Z,79.20
2023-04-16T13:42:32.444Z,78.90
2023-04-16T13:44:59.554Z,80.70
2023-04-16T13:47:26.779Z,80.60
2023-04-16T13:49:53.978Z,80.30
2023-04-16T13:52:21.736Z,79.20
2023-04-16T13:54:48.753Z,78.40
2023-04-16T13:57:20.377Z,79.40
2023-04-16T13:59:49.985Z,78.60
2023-04-16T14:02:17.556Z,79.50
2023-04-16T14:04:44.816Z,78.80
2023-04-16T14:07:12.079Z,80.30
2023-04-16T14:09:39.181Z,79.60
2023-04-16T14:12:07.463Z,79.70
2023-04-16T14:14:35.070Z,79.70
2023-04-16T14:17:03.547Z,79.50
2023-04-16T14:19:31.327Z,79.20
2023-04-16T14:21:58.672Z,80.80
2023-04-16T14:24:27.688Z,80.00
2023-04-16T14:26:57.913Z,80.80
2023-04-16T14:29:26.823Z,80.00
2023-04-16T14:31:59.479Z,80.80
2023-04-16T14:34:26.272Z,81.50
2023-04-16T14:36:53.485Z,81.90
2023-04-16T14:39:21.126Z,82.30
2023-04-16T14:41:48.272Z,82.60
2023-04-16T14:44:17.553Z,83.80
2023-04-16T14:46:44.822Z,84.80
2023-04-16T14:49:12.544Z,85.80
2023-04-16T14:51:40.406Z,85.20
2023-04-16T14:54:10.111Z,85.80
2023-04-16T14:56:42.114Z,85.20
2023-04-16T14:59:11.204Z,84.70
2023-04-16T15:01:41.964Z,84.50
2023-04-16T15:04:12.398Z,84.40
2023-04-16T15:06:40.429Z,84.50
2023-04-16T15:09:09.783Z,84.30
2023-04-16T15:11:36.907Z,84.20
2023-04-16T15:14:05.727Z,84.10
2023-04-16T15:16:33.066Z,83.60
2023-04-16T15:19:00.869Z,84.10
2023-04-16T15:21:28.055Z,82.30
2023-04-16T15:23:55.196Z,82.10
2023-04-16T15:26:23.380Z,81.90
2023-04-16T15:28:56.541Z,82.40
2023-04-16T15:31:23.346Z,82.50
2023-04-16T15:33:50.386Z,81.80
2023-04-16T15:36:18.199Z,82.30
2023-04-16T15:38:45.692Z,81.50
2023-04-16T15:41:13.376Z,81.30
2023-04-16T15:43:40.298Z,81.40
2023-04-16T15:46:12.226Z,80.70
2023-04-16T15:48:39.461Z,81.10
2023-04-16T15:51:06.368Z,80.80
2023-04-16T15:53:34.748Z,80.20
2023-04-16T15:56:01.976Z,79.90
2023-04-16T15:58:29.138Z,79.70
2023-04-16T16:00:58.928Z,80.20
2023-04-16T16:03:26.450Z,80.00
2023-04-16T16:05:53.398Z,80.20
2023-04-16T16:08:20.148Z,80.50
2023-04-16T16:10:47.341Z,80.20
2023-04-16T16:13:18.328Z,81.00
2023-04-16T16:15:45.527Z,80.80
2023-04-16T16:18:12.540Z,81.70
2023-04-16T16:20:40.552Z,82.40
2023-04-16T16:23:08.172Z,82.60
2023-04-16T16:25:39.678Z,83.30
2023-04-16T16:28:09.279Z,83.80
2023-04-16T16:30:38.754Z,84.10
2023-04-16T16:33:06.463Z,84.50
2023-04-16T16:35:33.407Z,84.20
2023-04-16T16:38:02.686Z,84.30
2023-04-16T16:40:31.276Z,84.50
2023-04-16T16:43:01.552Z,84.10
2023-04-16T16:45:30.573Z,84.20
2023-04-16T16:48:00.966Z,84.70
2023-04-16T16:50:28.101Z,85.20
2023-04-16T16:52:55.086Z,84.80
2023-04-16T16:55:27.446Z,84.90
2023-04-16T16:57:54.830Z,84.80
2023-04-16T17:00:22.427Z,84.50
2023-04-16T17:02:51.469Z,84.70
2023-04-16T17:05:18.828Z,85.40
2023-04-16T17:07:46.022Z,84.50
2023-04-16T17:10:21.871Z,85.20
2023-04-16T17:13:00.144Z,85.30
2023-04-16T17:15:27.437Z,85.00
2023-04-16T17:17:57.657Z,84.80
2023-04-16T17:20:26.633Z,85.00
2023-04-16T17:22:56.843Z,84.80
2023-04-16T17:25:23.705Z,84.60
2023-04-16T17:27:50.570Z,84.50
2023-04-16T17:30:18.137Z,84.70
2023-04-16T17:32:45.049Z,84.70
2023-04-16T17:35:14.862Z,85.00
2023-04-16T17:37:41.801Z,85.70
2023-04-16T17:40:12.907Z,85.70
2023-04-16T17:42:42.644Z,86.10
2023-04-16T17:45:13.707Z,86.50
2023-04-16T17:47:40.846Z,86.50
2023-04-16T17:50:12.728Z,86.60
2023-04-16T17:52:41.514Z,86.90
2023-04-16T17:55:11.688Z,87.00
2023-04-16T17:57:41.045Z,87.40
2023-04-16T18:00:11.856Z,87.70
2023-04-16T18:02:41.793Z,88.20
2023-04-16T18:05:12.023Z,88.60
2023-04-16T18:07:40.634Z,89.20
2023-04-16T18:10:08.451Z,89.70
2023-04-16T18:12:39.682Z,89.80
2023-04-16T18:15:07.634Z,90.20
2023-04-16T18:17:34.949Z,90.30
2023-04-16T18:20:02.014Z,90.50
2023-04-16T18:22:28.802Z,90.60
2023-04-16T18:24:56.111Z,90.80
2023-04-16T18:27:23.455Z,91.00
2023-04-16T18:29:54.852Z,91.20
2023-04-16T18:32:22.389Z,91.40
2023-04-16T18:34:49.618Z,91.60
2023-04-16T18:37:16.637Z,91.60
2023-04-16T18:39:43.875Z,91.70
2023-04-16T18:42:13.226Z,91.90
2023-04-16T18:44:40.524Z,92.00
2023-04-16T18:47:07.642Z,92.10
2023-04-16T18:49:34.773Z,92.20
2023-04-16T18:52:02.070Z,92.20
2023-04-16T18:54:29.041Z,92.30
2023-04-16T18:56:57.770Z,92.40
2023-04-16T18:59:27.027Z,92.90
2023-04-16T19:01:56.794Z,93.00
2023-04-16T19:04:23.817Z,93.10
2023-04-16T19:06:52.865Z,93.20
2023-04-16T19:09:20.241Z,93.20
2023-04-16T19:11:48.898Z,93.30
2023-04-16T19:14:16.004Z,93.40
2023-04-16T19:16:43.132Z,93.50
2023-04-16T19:19:10.459Z,93.70
2023-04-16T19:21:40.214Z,93.80
2023-04-16T19:24:07.538Z,94.00
2023-04-16T19:26:34.632Z,94.10
2023-04-16T19:29:01.913Z,94.20
2023-04-16T19:31:29.851Z,94.30
2023-04-16T19:33:57.180Z,94.50
2023-04-16T19:36:24.429Z,94.50
2023-04-16T19:38:51.605Z,94.70
2023-04-16T19:41:18.680Z,94.80
2023-04-16T19:43:45.754Z,94.80
2023-04-16T19:46:12.827Z,94.90
2023-04-16T19:48:40.022Z,95.10
2023-04-16T19:51:09.132Z,95.10
2023-04-16T19:53:38.654Z,95.30
2023-04-16T19:56:07.761Z,95.30
2023-04-16T19:58:37.256Z,95.40
2023-04-16T20:01:12.015Z,95.50
2023-04-16T20:03:43.702Z,95.60
2023-04-16T20:06:11.661Z,95.60
2023-04-16T20:08:41.929Z,95.80
2023-04-16T20:11:12.637Z,95.90
2023-04-16T20:13:40.751Z,95.90
2023-04-16T20:16:15.053Z,96.00
2023-04-16T20:18:46.397Z,96.10
2023-04-16T20:21:14.610Z,96.00
2023-04-16T20:23:44.530Z,96.20
2023-04-16T20:26:18.723Z,96.20
2023-04-16T20:28:45.905Z,96.10
2023-04-16T20:31:15.579Z,96.10
2023-04-16T20:33:44.922Z,96.20
2023-04-16T20:36:11.984Z,96.30
2023-04-16T20:38:42.328Z,96.20
2023-04-16T20:41:14.825Z,96.30
2023-04-16T20:43:45.412Z,96.40
2023-04-16T20:46:12.689Z,96.50
2023-04-16T20:48:39.706Z,96.60
2023-04-16T20:51:09.785Z,96.70
2023-04-16T20:53:39.973Z,96.80
2023-04-16T20:56:08.585Z,96.90
2023-04-16T20:58:35.652Z,97.10
2023-04-16T21:01:08.007Z,97.00
2023-04-16T21:03:37.720Z,97.10
2023-04-16T21:06:05.119Z,97.00
2023-04-16T21:08:32.125Z,97.10
2023-04-16T21:11:01.709Z,97.20
2023-04-16T21:13:30.937Z,97.40
2023-04-16T21:16:00.821Z,97.50
2023-04-16T21:18:28.952Z,97.70
2023-04-16T21:20:57.345Z,97.90
2023-04-16T21:23:24.897Z,98.10
2023-04-16T21:25:56.785Z,98.20
2023-04-16T21:28:23.725Z,98.40
2023-04-16T21:30:53.901Z,98.60
2023-04-16T21:33:20.793Z,98.90
2023-04-16T21:35:53.055Z,98.90
2023-04-16T21:38:20.925Z,99.00
2023-04-16T21:40:50.729Z,99.10
2023-04-16T21:43:18.213Z,99.10
2023-04-16T21:45:47.350Z,99.10
2023-04-16T21:48:16.632Z,99.20
2023-04-16T21:50:44.837Z,99.20
2023-04-16T21:53:18.564Z,99.20
2023-04-16T21:55:45.590Z,99.30
2023-04-16T21:58:12.656Z,99.30
2023-04-16T22:00:39.774Z,99.30
2023-04-16T22:03:09.292Z,99.30
2023-04-16T22:05:36.447Z,99.40
2023-04-16T22:08:16.945Z,99.40
2023-04-16T22:10:48.403Z,99.40
2023-04-16T22:13:18.152Z,99.50
2023-04-16T22:15:45.386Z,99.50
2023-04-16T22:18:12.480Z,99.50
2023-04-16T22:20:40.061Z,99.50
2023-04-16T22:23:08.115Z,99.50
2023-04-16T22:25:35.140Z,99.50
2023-04-16T22:28:02.082Z,99.60
2023-04-16T22:30:29.250Z,99.60
2023-04-16T22:32:56.692Z,99.60
2023-04-16T22:35:23.765Z,99.60
2023-04-16T22:37:50.934Z,99.80
2023-04-16T22:40:20.417Z,99.60
2023-04-16T22:42:56.855Z,99.60
2023-04-16T22:45:23.702Z,99.60
2023-04-16T22:47:50.938Z,99.70
2023-04-16T22:50:18.778Z,99.70
2023-04-16T22:52:45.605Z,99.70
2023-04-16T22:55:12.389Z,99.70
2023-04-16T22:57:39.571Z,99.70
2023-04-16T23:00:09.823Z,99.70
2023-04-16T23:02:38.856Z,99.70
2023-04-16T23:05:06.113Z,99.70
2023-04-16T23:07:33.520Z,99.70
2023-04-16T23:10:00.760Z,99.70
2023-04-16T23:12:30.362Z,99.70
2023-04-16T23:14:58.242Z,99.80
2023-04-16T23:17:25.295Z,99.80
2023-04-16T23:19:52.125Z,99.80
2023-04-16T23:22:21.287Z,99.80
2023-04-16T23:24:53.614Z,99.80
2023-04-16T23:27:22.797Z,99.80
2023-04-16T23:29:50.050Z,99.80
2023-04-16T23:32:17.340Z,99.80
2023-04-16T23:34:44.666Z,99.80
2023-04-16T23:37:11.728Z,99.80
2023-04-16T23:39:38.872Z,99.80
2023-04-16T23:42:06.143Z,99.90
2023-04-16T23:44:33.647Z,99.80
2023-04-16T23:47:00.851Z,99.80
2023-04-16T23:49:30.728Z,99.80
2023-04-16T23:51:58.854Z,99.80
2023-04-16T23:54:28.364Z,99.80
2023-04-16T23:56:57.131Z,99.90
2023-04-16T23:59:24.256Z,99.80
